Time;durP1;ratioP1;P1;durP2;ratioP2;P2;SDS_P1;SDS_P2;PMS_P1;PMS_P2;Temp;Humidity;BMP_temperature;BMP_pressure;BME280_temperature;BME280_humidity;BME280_pressure;Samples;Min_cycle;Max_cycle;Signal;HPM_P1;HPM_P2
2024/03/13 00:00:57;;;;;;;32.90;29.53;;;5.50;99.90;7.60;96557.00;;;;5051681;28;20201;-69
2024/03/13 00:03:45;;;;;;;35.97;32.07;;;5.60;99.90;7.80;96568.00;;;;5049882;28;21360;-69
2024/03/13 00:06:34;;;;;;;35.40;32.20;;;5.60;99.90;6.40;96559.00;;;;5048642;28;20228;-66
2024/03/13 00:09:25;;;;;;;75.17;50.87;;;5.60;99.90;7.60;96569.00;;;;5045237;28;20685;-69
2024/03/13 00:12:14;;;;;;;33.17;30.03;;;5.60;99.90;8.20;96578.00;;;;5040506;28;20225;-69
2024/03/13 00:15:05;;;;;;;35.27;32.23;;;5.70;99.90;7.90;96583.00;;;;5051736;28;20212;-68
2024/03/13 00:17:54;;;;;;;36.47;33.17;;;5.90;99.90;8.70;96578.00;;;;5058434;28;20797;-68
2024/03/13 00:20:44;;;;;;;44.50;38.50;;;6.30;99.90;7.30;96571.00;;;;5046784;28;20219;-69
2024/03/13 00:23:34;;;;;;;24.83;22.53;;;6.20;99.90;7.80;96570.00;;;;5048878;28;20586;-69
2024/03/13 00:26:25;;;;;;;24.33;22.07;;;6.20;99.90;8.40;96573.00;;;;5045478;28;20201;-69
2024/03/13 00:29:13;;;;;;;21.73;19.90;;;6.10;99.90;6.10;96564.00;;;;5032424;28;20208;-67
2024/03/13 00:32:02;;;;;;;25.20;22.93;;;5.80;99.90;5.50;96559.00;;;;5047388;28;20239;-70
2024/03/13 00:34:51;;;;;;;31.10;25.50;;;5.30;99.90;5.00;96545.00;;;;5047123;28;20215;-68
2024/03/13 00:37:40;;;;;;;25.77;23.53;;;4.90;99.90;6.10;96563.00;;;;5050283;28;20756;-69
2024/03/13 00:40:29;;;;;;;30.80;27.63;;;4.60;99.90;6.20;96566.00;;;;5050716;28;20203;-67
2024/03/13 00:43:20;;;;;;;29.23;26.63;;;4.70;99.90;6.70;96574.00;;;;5053470;28;20227;-70
2024/03/13 00:46:09;;;;;;;31.20;28.20;;;4.80;99.90;5.90;96567.00;;;;5049173;28;20253;-69
2024/03/13 00:48:58;;;;;;;37.80;30.77;;;4.80;99.90;5.90;96560.00;;;;5053529;28;20214;-69
2024/03/13 00:51:49;;;;;;;30.07;26.53;;;4.60;99.90;6.40;96561.00;;;;5043261;28;20224;-69
2024/03/13 00:54:44;;;;;;;20.70;18.37;;;4.60;99.90;5.30;96566.00;;;;5044989;28;20208;-69
2024/03/13 00:57:33;;;;;;;21.37;19.60;;;4.60;99.90;5.90;96573.00;;;;5045976;28;20319;-69
2024/03/13 01:00:28;;;;;;;26.00;22.53;;;4.50;99.90;6.00;96571.00;;;;5046372;28;20210;-67
2024/03/13 01:03:19;;;;;;;26.97;24.80;;;4.60;99.90;5.80;96570.00;;;;5003346;28;20197;-70
2024/03/13 01:06:08;;;;;;;30.13;27.37;;;4.40;99.90;6.70;96573.00;;;;5036958;28;20204;-68
2024/03/13 01:08:57;;;;;;;43.13;35.73;;;4.40;99.90;6.80;96571.00;;;;5050392;28;20208;-69
2024/03/13 01:11:46;;;;;;;28.87;25.90;;;4.60;99.90;5.90;96557.00;;;;5045558;28;20251;-68
2024/03/13 01:14:35;;;;;;;24.70;22.53;;;4.70;99.90;4.90;96560.00;;;;5046979;28;20201;-70
2024/03/13 01:17:26;;;;;;;30.53;27.67;;;4.50;99.90;5.60;96561.00;;;;5050036;28;20232;-67
2024/03/13 01:20:16;;;;;;;21.53;19.23;;;4.40;99.90;5.30;96568.00;;;;5045060;28;20209;-70
2024/03/13 01:23:05;;;;;;;23.57;21.17;;;4.30;99.90;4.90;96549.00;;;;5047317;28;20195;-67
2024/03/13 01:25:58;;;;;;;30.60;27.37;;;4.20;99.90;4.70;96560.00;;;;5046918;28;20205;-68
2024/03/13 01:28:47;;;;;;;39.00;29.60;;;4.00;99.90;5.80;96567.00;;;;5046076;28;20583;-69
2024/03/13 01:31:36;;;;;;;27.47;24.90;;;3.90;99.90;6.50;96571.00;;;;5048652;28;20231;-69
2024/03/13 01:34:27;;;;;;;23.93;21.60;;;4.10;99.90;5.60;96560.00;;;;5052768;28;20199;-69
2024/03/13 01:40:27;;;;;;;29.87;25.80;;;4.00;99.90;6.30;96562.00;;;;5047137;28;20196;-70
2024/03/13 01:55:45;;;;;;;200.63;110.10;;;4.70;99.90;6.30;96563.00;;;;5024519;28;20599;-69
2024/03/13 01:58:40;;;;;;;29.40;26.33;;;4.90;99.90;6.90;96578.00;;;;5041946;28;20315;-69
2024/03/13 02:04:38;;;;;;;34.60;31.37;;;5.00;99.90;7.00;96579.00;;;;5048790;28;20211;-68
2024/03/13 02:07:26;;;;;;;182.17;102.13;;;5.10;99.90;6.40;96578.00;;;;5043605;28;20219;-68
2024/03/13 02:10:16;;;;;;;32.23;28.77;;;5.10;99.90;6.40;96583.00;;;;5052119;28;20204;-69
2024/03/13 02:13:07;;;;;;;30.70;27.97;;;4.90;99.90;6.40;96588.00;;;;5057373;28;20312;-68
2024/03/13 02:15:55;;;;;;;40.07;33.27;;;4.90;99.90;6.60;96588.00;;;;5051877;28;20204;-68
2024/03/13 02:18:45;;;;;;;32.40;29.23;;;4.90;99.90;7.20;96581.00;;;;5105301;22;20253;-70
2024/03/13 02:21:36;;;;;;;23.50;21.20;;;5.00;99.90;5.70;96577.00;;;;5089286;28;20210;-70
2024/03/13 02:24:25;;;;;;;21.57;19.97;;;4.90;99.90;5.20;96583.00;;;;5082466;28;20206;-67
2024/03/13 02:27:14;;;;;;;19.93;18.00;;;4.50;99.90;5.30;96570.00;;;;5055866;28;20226;-67
2024/03/13 02:30:05;;;;;;;18.87;17.10;;;4.30;99.90;5.90;96571.00;;;;5053716;28;20227;-66
2024/03/13 02:32:55;;;;;;;22.03;13.50;;;4.20;99.90;5.90;96580.00;;;;5049886;28;20223;-68
2024/03/13 02:35:44;;;;;;;19.83;16.43;;;4.20;99.90;4.60;96578.00;;;;5053245;28;20207;-70
2024/03/13 02:38:33;;;;;;;14.57;9.40;;;4.10;99.90;5.70;96583.00;;;;5041602;28;20227;-69
2024/03/13 02:41:22;;;;;;;12.33;9.73;;;3.90;99.90;5.50;96581.00;;;;5048452;28;20591;-67
2024/03/13 02:44:11;;;;;;;13.97;11.60;;;3.90;99.90;6.40;96582.00;;;;5042079;28;20195;-67
2024/03/13 02:47:00;;;;;;;26.37;17.93;;;4.20;99.90;6.90;96586.00;;;;5047995;28;20204;-67
2024/03/13 02:49:49;;;;;;;18.63;16.67;;;4.10;99.90;6.10;96581.00;;;;5042059;28;20230;-68
2024/03/13 02:52:38;;;;;;;21.37;19.33;;;4.30;99.90;6.00;96586.00;;;;5042584;28;20228;-68
2024/03/13 02:55:26;;;;;;;34.30;27.53;;;4.20;99.90;6.30;96589.00;;;;5047922;28;20216;-67
2024/03/13 02:58:16;;;;;;;20.83;19.00;;;4.30;99.90;6.30;96583.00;;;;5052849;28;20227;-66
2024/03/13 03:01:05;;;;;;;23.10;20.90;;;4.30;99.90;6.50;96593.00;;;;5061166;28;20215;-67
2024/03/13 03:03:54;;;;;;;25.93;23.43;;;4.40;99.90;5.40;96592.00;;;;5036619;28;20200;-65
2024/03/13 03:06:43;;;;;;;21.97;20.07;;;4.10;99.90;5.00;96579.00;;;;5052490;28;20234;-66
2024/03/13 03:09:32;;;;;;;26.07;23.77;;;4.00;99.90;5.20;96588.00;;;;5046986;28;20200;-66
2024/03/13 03:12:21;;;;;;;20.60;18.67;;;3.90;99.90;5.50;96589.00;;;;5033940;28;20235;-71
2024/03/13 03:15:10;;;;;;;18.50;17.07;;;3.80;99.90;6.00;96596.00;;;;5047485;28;20196;-69
2024/03/13 03:17:59;;;;;;;24.73;22.23;;;3.80;99.90;6.30;96602.00;;;;5046475;28;20739;-69
2024/03/13 03:20:48;;;;;;;31.67;20.90;;;3.90;99.90;6.40;96596.00;;;;5050089;28;20219;-70
2024/03/13 03:23:38;;;;;;;19.00;17.23;;;4.00;99.90;5.80;96598.00;;;;5047795;28;20899;-69
2024/03/13 03:26:28;;;;;;;19.30;17.53;;;4.00;99.90;6.00;96598.00;;;;5046539;28;20200;-68
2024/03/13 03:29:17;;;;;;;21.37;19.57;;;4.00;99.90;6.00;96610.00;;;;5050116;28;20200;-68
2024/03/13 03:32:06;;;;;;;23.07;20.83;;;4.00;99.90;5.90;96595.00;;;;5045855;28;20204;-68
2024/03/13 03:34:55;;;;;;;28.57;22.63;;;3.90;99.90;5.70;96603.00;;;;5057039;28;20689;-69
2024/03/13 03:37:44;;;;;;;40.53;28.50;;;3.90;99.90;6.10;96605.00;;;;5041658;28;20239;-68
2024/03/13 03:40:33;;;;;;;27.33;20.90;;;3.80;99.90;5.90;96591.00;;;;5039762;28;20205;-68
2024/03/13 03:43:22;;;;;;;25.37;22.87;;;3.90;99.90;5.80;96596.00;;;;5050986;28;20207;-68
2024/03/13 03:46:14;;;;;;;23.07;21.00;;;3.90;99.90;5.80;96605.00;;;;5053681;28;20587;-68
2024/03/13 03:49:03;;;;;;;21.60;19.67;;;3.90;99.90;4.80;96610.00;;;;5043761;28;20224;-66
2024/03/13 03:51:52;;;;;;;31.03;25.13;;;3.80;99.90;5.50;96605.00;;;;5047287;28;20293;-67
2024/03/13 03:54:41;;;;;;;20.97;19.03;;;3.70;99.90;5.20;96601.00;;;;5035178;28;20220;-68
2024/03/13 03:57:30;;;;;;;23.17;20.60;;;3.60;99.90;4.60;96607.00;;;;5051860;28;20494;-71
2024/03/13 04:00:22;;;;;;;22.37;20.53;;;3.50;99.90;5.00;96595.00;;;;5049861;28;20201;-69
2024/03/13 04:03:12;;;;;;;22.43;20.40;;;3.40;99.90;5.50;96610.00;;;;5049279;28;20285;-65
2024/03/13 04:06:01;;;;;;;25.07;19.70;;;3.40;99.90;5.10;96599.00;;;;5041866;28;20204;-67
2024/03/13 04:08:50;;;;;;;33.73;25.17;;;3.50;99.90;4.90;96611.00;;;;5029746;28;20233;-66
2024/03/13 04:11:39;;;;;;;27.97;25.23;;;3.60;99.90;5.30;96617.00;;;;5035422;28;20424;-66
2024/03/13 04:14:28;;;;;;;27.27;25.10;;;3.80;99.90;5.60;96608.00;;;;5045304;28;20220;-67
2024/03/13 04:17:17;;;;;;;32.80;29.30;;;3.90;99.90;5.30;96604.00;;;;5046393;28;20231;-70
2024/03/13 04:20:12;;;;;;;28.93;26.23;;;3.90;99.90;5.80;96615.00;;;;5026778;28;20207;-69
2024/03/13 04:23:00;;;;;;;37.53;33.43;;;4.00;99.90;5.40;96603.00;;;;5030174;28;20238;-70
2024/03/13 04:25:49;;;;;;;33.70;30.47;;;4.10;99.90;4.90;96606.00;;;;5029906;28;20204;-71
2024/03/13 04:28:43;;;;;;;34.07;30.83;;;4.00;99.90;4.80;96608.00;;;;5025858;28;20224;-69
2024/03/13 04:31:33;;;;;;;31.90;28.97;;;3.90;99.90;5.20;96610.00;;;;5023430;28;20443;-67
2024/03/13 04:34:22;;;;;;;34.20;31.20;;;3.90;99.90;5.80;96611.00;;;;5029317;28;20223;-66
2024/03/13 04:37:12;;;;;;;28.33;25.67;;;4.10;99.90;5.80;96620.00;;;;5021364;28;20230;-68
2024/03/13 04:40:01;;;;;;;34.20;30.50;;;4.10;99.90;5.30;96622.00;;;;5028246;28;20200;-66
2024/03/13 04:42:50;;;;;;;36.03;32.27;;;4.00;99.90;5.90;96628.00;;;;5025300;28;20609;-70
2024/03/13 04:45:39;;;;;;;34.93;30.23;;;4.00;99.90;5.10;96633.00;;;;5028568;28;20577;-71
2024/03/13 04:48:28;;;;;;;32.10;29.23;;;4.00;99.90;5.10;96627.00;;;;5030470;28;20220;-69
2024/03/13 04:51:17;;;;;;;21.27;18.27;;;4.00;99.90;5.40;96620.00;;;;5028912;28;20200;-66
2024/03/13 04:54:06;;;;;;;17.63;16.00;;;4.00;99.90;5.40;96632.00;;;;5045035;28;20230;-71
2024/03/13 04:56:55;;;;;;;35.30;28.73;;;4.00;99.90;5.70;96634.00;;;;5008121;28;20204;-67
2024/03/13 04:59:44;;;;;;;29.90;25.20;;;4.00;99.90;5.30;96636.00;;;;5024945;28;20446;-62
2024/03/13 05:02:32;;;;;;;28.87;25.93;;;4.00;99.90;5.00;96630.00;;;;5031470;28;20200;-70
2024/03/13 05:05:23;;;;;;;34.27;30.73;;;4.60;99.90;5.20;96638.00;;;;5032994;28;20434;-66
2024/03/13 05:08:13;;;;;;;29.90;27.20;;;3.90;99.90;5.10;96647.00;;;;5019344;28;20628;-66
2024/03/13 05:11:02;;;;;;;49.80;37.20;;;3.90;99.90;5.10;96644.00;;;;5020911;28;20594;-68
2024/03/13 05:13:51;;;;;;;39.23;34.50;;;3.90;99.90;5.80;96644.00;;;;5020310;28;20273;-66
2024/03/13 05:16:45;;;;;;;45.43;37.20;;;4.00;99.90;5.80;96648.00;;;;5013192;28;20587;-71
2024/03/13 05:19:34;;;;;;;37.63;33.77;;;4.00;99.90;5.40;96650.00;;;;5034715;28;20218;-70
2024/03/13 05:22:22;;;;;;;26.13;23.67;;;4.10;99.90;5.30;96645.00;;;;5023506;28;20211;-70
2024/03/13 05:25:14;;;;;;;37.40;33.63;;;4.00;99.90;5.10;96654.00;;;;5025960;28;20796;-70
2024/03/13 05:28:03;;;;;;;37.70;29.90;;;3.90;99.90;5.40;96643.00;;;;5029941;28;20226;-68
2024/03/13 05:30:52;;;;;;;43.33;38.50;;;3.90;99.90;5.20;96661.00;;;;5029194;28;20421;-65
2024/03/13 05:33:41;;;;;;;35.10;31.40;;;3.90;99.90;4.80;96642.00;;;;5028482;28;20466;-65
2024/03/13 05:36:32;;;;;;;99.17;56.33;;;3.90;99.90;4.80;96655.00;;;;4993525;28;20211;-63
2024/03/13 05:39:24;;;;;;;149.07;88.77;;;3.80;99.90;5.00;96655.00;;;;5013310;28;20350;-65
2024/03/13 05:42:12;;;;;;;40.13;32.27;;;3.70;99.90;4.90;96657.00;;;;5023427;28;20443;-67
2024/03/13 05:45:02;;;;;;;30.40;27.20;;;3.80;99.90;5.60;96661.00;;;;5021690;28;20211;-65
2024/03/13 05:47:52;;;;;;;227.33;118.57;;;3.80;99.90;4.50;96655.00;;;;4952577;28;20831;-70
2024/03/13 05:50:41;;;;;;;38.03;32.70;;;3.80;99.90;5.30;96659.00;;;;5030407;28;20203;-69
2024/03/13 05:53:30;;;;;;;34.23;30.73;;;3.80;99.90;5.80;96672.00;;;;5010808;28;20200;-68
2024/03/13 05:56:21;;;;;;;36.43;32.37;;;3.80;99.90;4.90;96659.00;;;;5018005;28;20208;-67
2024/03/13 05:59:10;;;;;;;34.70;31.53;;;3.80;99.90;4.00;96654.00;;;;5026281;28;20200;-67
2024/03/13 06:01:58;;;;;;;40.30;36.13;;;3.60;99.90;4.20;96667.00;;;;4979805;28;20203;-69
2024/03/13 06:04:48;;;;;;;76.07;52.20;;;3.50;99.90;4.90;96672.00;;;;5000169;28;20212;-65
2024/03/13 06:07:37;;;;;;;37.47;33.70;;;3.50;99.90;4.90;96671.00;;;;5015657;28;20822;-68
2024/03/13 06:10:26;;;;;;;205.33;123.90;;;3.60;99.90;5.00;96673.00;;;;5009712;28;20443;-68
2024/03/13 06:13:17;;;;;;;221.20;95.50;;;3.60;99.90;4.60;96673.00;;;;4939577;28;20442;-68
2024/03/13 06:16:09;;;;;;;211.90;105.13;;;3.60;99.90;4.50;96677.00;;;;4952377;28;20204;-69
2024/03/13 06:18:58;;;;;;;145.70;76.40;;;3.60;99.90;4.40;96666.00;;;;4934983;28;21037;-64
2024/03/13 06:21:47;;;;;;;196.90;91.23;;;3.50;99.90;4.80;96657.00;;;;4954593;28;21014;-69
2024/03/13 06:24:36;;;;;;;26.93;24.03;;;3.50;99.90;4.80;96665.00;;;;4986960;28;20454;-67
2024/03/13 06:27:28;;;;;;;35.97;32.23;;;3.40;99.90;4.80;96678.00;;;;5025198;28;20451;-64
2024/03/13 06:30:16;;;;;;;172.30;106.83;;;3.50;99.90;4.90;96679.00;;;;5015673;28;20415;-67
2024/03/13 06:33:06;;;;;;;40.10;36.23;;;3.50;99.90;5.20;96668.00;;;;5030582;28;20203;-70
2024/03/13 06:35:55;;;;;;;48.17;40.97;;;3.60;99.90;5.40;96672.00;;;;5024558;28;20485;-66
2024/03/13 06:38:46;;;;;;;45.07;39.70;;;3.70;99.90;5.60;96682.00;;;;5021558;28;20854;-68
2024/03/13 06:41:35;;;;;;;43.97;39.60;;;3.80;99.90;5.70;96680.00;;;;5032642;28;20223;-69
2024/03/13 06:44:24;;;;;;;246.23;152.67;;;5.30;99.90;6.10;96694.00;;;;4947780;28;20200;-67
2024/03/13 06:47:13;;;;;;;130.50;81.87;;;4.20;99.90;5.50;96679.00;;;;4956634;28;21445;-65
2024/03/13 06:50:02;;;;;;;211.10;130.70;;;4.80;99.90;6.00;96685.00;;;;4949831;28;20283;-69
2024/03/13 06:52:51;;;;;;;196.37;117.63;;;4.30;99.90;6.30;96683.00;;;;4956765;28;20320;-65
2024/03/13 06:55:40;;;;;;;226.87;147.83;;;4.40;99.90;6.10;96690.00;;;;4972577;28;20238;-68
2024/03/13 06:58:29;;;;;;;238.07;145.47;;;4.50;99.90;7.20;96698.00;;;;4967668;28;20233;-66
2024/03/13 07:01:18;;;;;;;219.63;149.80;;;4.70;99.90;7.40;96709.00;;;;4972582;28;20897;-66
2024/03/13 07:04:08;;;;;;;233.53;145.40;;;4.80;99.90;7.70;96708.00;;;;4976086;28;20283;-67
2024/03/13 07:06:59;;;;;;;203.80;136.77;;;4.90;99.90;7.10;96703.00;;;;4953024;28;20682;-66
2024/03/13 07:09:49;;;;;;;203.03;125.43;;;5.00;99.90;7.40;96700.00;;;;4968626;28;20283;-67
2024/03/13 07:12:38;;;;;;;170.23;95.27;;;5.00;99.90;7.50;96691.00;;;;4960563;28;20892;-67
2024/03/13 07:15:27;;;;;;;196.23;100.93;;;5.10;99.90;7.50;96706.00;;;;4953109;28;20291;-67
2024/03/13 07:18:17;;;;;;;153.40;79.50;;;5.20;99.90;7.80;96709.00;;;;4980137;28;20239;-66
2024/03/13 07:21:06;;;;;;;214.63;113.13;;;5.40;99.90;7.40;96689.00;;;;4942406;28;20232;-68
2024/03/13 07:23:55;;;;;;;227.77;117.47;;;5.40;99.90;8.20;96696.00;;;;4932399;28;21612;-66
2024/03/13 07:26:45;;;;;;;227.70;133.23;;;5.70;99.90;8.10;96695.00;;;;4931537;28;20302;-70
2024/03/13 07:29:35;;;;;;;131.10;80.70;;;5.70;99.90;8.10;96701.00;;;;4972302;28;20832;-70
2024/03/13 07:32:24;;;;;;;38.97;35.57;;;5.80;99.90;8.90;96700.00;;;;5026057;28;20251;-68
2024/03/13 07:35:14;;;;;;;42.17;38.47;;;6.00;99.90;9.00;96705.00;;;;5036577;28;20228;-66
2024/03/13 07:38:03;;;;;;;50.17;45.03;;;6.20;99.90;8.20;96703.00;;;;5029088;28;20223;-71
2024/03/13 07:40:52;;;;;;;56.93;50.83;;;6.30;99.90;9.20;96697.00;;;;5009214;28;20220;-66
2024/03/13 07:43:41;;;;;;;51.47;46.73;;;6.40;99.90;9.30;96696.00;;;;5031003;28;20205;-68
2024/03/13 07:46:30;;;;;;;49.40;45.03;;;6.70;99.90;9.40;96694.00;;;;5035737;28;20204;-68
2024/03/13 07:49:19;;;;;;;52.57;47.90;;;6.80;99.90;9.80;96710.00;;;;5023245;28;20715;-68
2024/03/13 07:52:08;;;;;;;50.87;46.23;;;7.00;99.90;9.90;96708.00;;;;5023533;28;20200;-68
2024/03/13 07:54:57;;;;;;;55.63;50.73;;;7.20;99.90;9.50;96710.00;;;;5029902;28;20218;-67
2024/03/13 07:57:46;;;;;;;56.90;51.80;;;7.20;99.90;10.30;96715.00;;;;5028457;28;20223;-68
2024/03/13 08:00:35;;;;;;;59.23;52.40;;;7.40;99.90;10.90;96705.00;;;;5040992;28;20196;-68
2024/03/13 08:03:24;;;;;;;59.27;54.10;;;7.70;99.90;11.40;96717.00;;;;5042245;28;20664;-67
2024/03/13 08:06:13;;;;;;;55.33;50.37;;;7.90;99.90;11.30;96715.00;;;;5031128;28;20187;-68
2024/03/13 08:09:19;;;;;;;67.73;61.07;;;8.10;99.90;10.90;96711.00;;;;5020975;28;20197;-68
2024/03/13 08:12:25;;;;;;;64.50;58.67;;;8.30;99.90;11.30;96725.00;;;;5034423;28;20217;-68
2024/03/13 08:15:31;;;;;;;76.13;67.80;;;8.50;99.90;11.50;96712.00;;;;5013696;28;20220;-68
2024/03/13 08:18:39;;;;;;;75.53;67.97;;;8.70;99.90;12.30;96711.00;;;;5059721;23;20612;-70
2024/03/13 08:21:46;;;;;;;73.30;66.03;;;9.00;99.90;12.80;96716.00;;;;5031329;28;20239;-70
2024/03/13 08:24:52;;;;;;;82.30;73.70;;;9.30;99.90;12.50;96714.00;;;;5033933;28;20241;-70
2024/03/13 08:27:58;;;;;;;88.87;79.10;;;9.50;99.90;13.10;96722.00;;;;5045394;28;20224;-70
2024/03/13 08:31:05;;;;;;;96.53;86.50;;;9.80;99.90;13.50;96718.00;;;;5053122;28;20224;-70
2024/03/13 08:34:13;;;;;;;99.00;88.43;;;10.10;99.90;13.60;96736.00;;;;5039922;28;20199;-72
2024/03/13 08:37:19;;;;;;;104.83;89.63;;;10.40;99.90;13.20;96731.00;;;;5056431;28;20204;-70
2024/03/13 08:40:28;;;;;;;106.90;95.17;;;10.40;99.90;13.30;96725.00;;;;5039980;28;20200;-70
2024/03/13 08:43:34;;;;;;;106.87;94.73;;;10.40;99.90;13.40;96718.00;;;;5053752;28;20575;-70
2024/03/13 08:46:41;;;;;;;107.40;95.53;;;10.40;99.90;13.60;96730.00;;;;5034313;28;20196;-70
2024/03/13 08:49:47;;;;;;;115.57;100.10;;;10.50;99.90;13.60;96734.00;;;;5049765;28;20212;-70
2024/03/13 08:52:54;;;;;;;125.13;104.40;;;10.60;99.90;13.70;96739.00;;;;5046073;28;20207;-70
2024/03/13 08:56:00;;;;;;;114.87;98.93;;;10.70;99.90;13.60;96722.00;;;;5038784;28;20744;-70
2024/03/13 08:59:07;;;;;;;108.13;95.87;;;10.70;99.50;13.60;96724.00;;;;5053296;28;20219;-70
2024/03/13 09:02:13;;;;;;;138.73;108.90;;;10.80;97.50;14.60;96731.00;;;;5052604;28;20229;-70
2024/03/13 09:05:20;;;;;;;155.23;116.93;;;11.10;97.90;14.90;96715.00;;;;5045796;28;20669;-70
2024/03/13 09:08:29;;;;;;;131.20;111.23;;;11.40;98.10;15.20;96722.00;;;;5046565;28;20227;-70
2024/03/13 09:11:19;;;;;;;140.43;114.60;;;11.70;97.80;15.30;96726.00;;;;5033070;28;20675;-70
2024/03/13 09:14:08;;;;;;;135.67;114.70;;;11.90;97.10;15.20;96725.00;;;;5052394;28;20211;-70
2024/03/13 09:16:57;;;;;;;160.50;129.67;;;12.10;95.10;15.10;96741.00;;;;5045722;28;20235;-71
2024/03/13 09:19:49;;;;;;;150.50;121.27;;;12.10;92.60;14.70;96741.00;;;;5046628;28;20212;-69
2024/03/13 09:22:38;;;;;;;143.53;124.20;;;12.20;92.30;14.40;96725.00;;;;5035931;28;20200;-71
2024/03/13 09:25:27;;;;;;;138.67;123.97;;;12.10;91.20;15.60;96745.00;;;;5024077;28;20209;-70
2024/03/13 09:28:16;;;;;;;137.10;120.83;;;12.30;92.10;15.80;96741.00;;;;5025328;28;20242;-70
2024/03/13 09:31:05;;;;;;;145.67;126.60;;;12.50;92.50;15.00;96719.00;;;;5047903;28;20211;-71
2024/03/13 09:33:54;;;;;;;137.13;121.97;;;12.50;88.70;16.10;96726.00;;;;5041623;28;20200;-70
2024/03/13 09:36:44;;;;;;;137.63;122.90;;;12.80;90.30;15.90;96731.00;;;;5048386;28;20235;-71
2024/03/13 09:39:33;;;;;;;179.37;146.17;;;13.00;90.00;16.10;96723.00;;;;5031350;28;20214;-70
2024/03/13 09:42:23;;;;;;;151.73;130.57;;;13.10;88.30;17.00;96727.00;;;;5035474;28;20202;-70
2024/03/13 09:45:13;;;;;;;168.47;142.27;;;13.40;90.00;17.40;96748.00;;;;5035867;28;20203;-70
2024/03/13 09:48:02;;;;;;;171.87;146.27;;;13.70;89.00;16.20;96728.00;;;;5040056;28;20223;-71
2024/03/13 09:50:51;;;;;;;165.27;147.53;;;13.60;85.80;16.50;96739.00;;;;5050842;28;20214;-71
2024/03/13 09:53:41;;;;;;;151.70;136.77;;;13.70;86.40;16.10;96739.00;;;;5051258;28;20571;-70
2024/03/13 09:56:30;;;;;;;157.37;141.13;;;13.80;81.70;16.40;96734.00;;;;5034718;28;20681;-70
2024/03/13 09:59:19;;;;;;;154.73;139.20;;;13.80;83.90;17.10;96729.00;;;;5034789;28;20220;-70
2024/03/13 10:02:11;;;;;;;156.27;140.90;;;14.00;84.70;17.60;96718.00;;;;5040095;28;20215;-70
2024/03/13 10:05:00;;;;;;;160.20;144.80;;;14.20;84.90;17.70;96731.00;;;;5055866;28;20203;-70
2024/03/13 10:07:49;;;;;;;159.07;143.47;;;14.40;84.80;17.00;96724.00;;;;5027492;28;20843;-70
2024/03/13 10:10:38;;;;;;;180.67;161.03;;;14.30;82.10;17.60;96734.00;;;;5035617;28;20204;-69
2024/03/13 10:13:29;;;;;;;167.03;150.27;;;14.50;81.80;18.00;96733.00;;;;5052556;28;20819;-70
2024/03/13 10:16:22;;;;;;;157.77;143.00;;;14.70;81.70;18.00;96712.00;;;;5035297;28;20216;-70
2024/03/13 10:19:12;;;;;;;165.30;149.63;;;14.90;80.30;15.30;96715.00;;;;5033859;28;20307;-71
2024/03/13 10:22:01;;;;;;;169.83;153.80;;;14.60;77.00;17.60;96714.00;;;;5034824;28;20196;-70
2024/03/13 10:24:51;;;;;;;173.93;156.77;;;14.60;79.80;17.50;96707.00;;;;5037067;28;20211;-70
2024/03/13 10:27:42;;;;;;;180.33;162.53;;;14.80;79.50;17.80;96716.00;;;;5034555;28;20230;-70
2024/03/13 10:30:31;;;;;;;191.87;171.60;;;14.90;77.90;17.40;96705.00;;;;5021105;28;20204;-70
2024/03/13 10:33:20;;;;;;;180.53;158.83;;;15.10;76.60;16.60;96721.00;;;;5020186;28;20212;-71
2024/03/13 10:36:11;;;;;;;183.10;163.47;;;14.80;75.60;16.30;96701.00;;;;5020919;28;20715;-70
2024/03/13 10:39:01;;;;;;;175.97;157.97;;;14.70;73.60;17.80;96716.00;;;;5027297;28;20229;-70
2024/03/13 10:41:51;;;;;;;163.73;148.93;;;14.70;77.60;18.50;96713.00;;;;5021073;28;20220;-70
2024/03/13 10:44:40;;;;;;;156.73;144.10;;;15.00;77.10;17.40;96728.00;;;;5019971;28;20197;-70
2024/03/13 10:47:29;;;;;;;173.17;157.70;;;15.00;73.90;17.40;96684.00;;;;5015961;28;20686;-70
2024/03/13 10:50:18;;;;;;;183.60;166.73;;;15.00;76.00;18.60;96686.00;;;;5008790;28;20206;-71
2024/03/13 10:53:07;;;;;;;190.57;172.73;;;15.20;76.90;18.90;96691.00;;;;5033417;28;20577;-71
2024/03/13 10:55:57;;;;;;;212.83;192.20;;;15.60;74.60;19.20;96730.00;;;;5020204;28;20217;-71
2024/03/13 10:58:47;;;;;;;242.47;218.70;;;15.90;75.30;15.80;96739.00;;;;5032738;28;20221;-70
2024/03/13 11:01:37;;;;;;;215.47;194.40;;;15.50;71.10;16.20;96679.00;;;;5001897;28;20678;-71
2024/03/13 11:04:27;;;;;;;187.50;170.10;;;15.10;72.80;16.50;96684.00;;;;5030226;28;20283;-71
2024/03/13 11:07:16;;;;;;;199.23;179.87;;;15.10;90.70;18.50;96684.00;;;;5007820;28;20205;-71
2024/03/13 11:10:06;;;;;;;196.17;177.87;;;15.20;73.50;18.50;96678.00;;;;5029430;28;20208;-71
2024/03/13 11:12:56;;;;;;;193.57;176.33;;;15.60;72.90;19.10;96686.00;;;;5019750;28;20204;-71
2024/03/13 11:15:45;;;;;;;231.77;209.63;;;15.90;71.20;20.30;96674.00;;;;5021949;28;20215;-71
2024/03/13 11:18:34;;;;;;;237.87;216.10;;;16.40;71.80;20.40;96673.00;;;;5032027;28;20238;-71
2024/03/13 11:21:24;;;;;;;289.97;242.40;;;16.90;69.30;21.10;96677.00;;;;5043080;28;20289;-72
2024/03/13 11:24:14;;;;;;;358.33;262.30;;;17.30;71.20;20.30;96677.00;;;;5040197;28;20688;-71
2024/03/13 11:27:04;;;;;;;394.13;269.53;;;17.70;66.80;19.40;96662.00;;;;5052477;28;20204;-70
2024/03/13 11:29:53;;;;;;;388.13;271.20;;;17.70;65.90;19.70;96657.00;;;;5049866;28;20297;-70
2024/03/13 11:32:42;;;;;;;380.77;265.87;;;17.50;64.60;19.60;96659.00;;;;5039882;28;20694;-70
2024/03/13 11:35:32;;;;;;;398.13;284.43;;;17.60;66.60;19.90;96661.00;;;;5040004;28;20211;-71
2024/03/13 11:38:21;;;;;;;391.77;279.50;;;17.70;63.10;18.90;96646.00;;;;5040368;28;20614;-69
2024/03/13 11:41:12;;;;;;;386.00;273.20;;;17.80;63.00;19.90;96701.00;;;;5039197;28;20212;-70
2024/03/13 11:44:00;;;;;;;392.53;280.87;;;17.70;64.00;20.80;96716.00;;;;5038898;28;20219;-71
2024/03/13 11:46:49;;;;;;;418.27;296.20;;;18.00;65.00;20.10;96698.00;;;;5035602;28;20193;-71
2024/03/13 11:49:40;;;;;;;405.33;282.20;;;17.70;62.90;21.30;96712.00;;;;5024293;28;20215;-72
2024/03/13 11:52:29;;;;;;;398.43;284.30;;;17.90;64.20;20.10;96701.00;;;;5024037;28;20208;-70
2024/03/13 11:55:26;;;;;;;396.77;281.97;;;17.80;62.70;20.40;96650.00;;;;5037673;28;20204;-70
2024/03/13 11:58:21;;;;;;;395.47;281.70;;;17.70;64.00;19.90;96644.00;;;;5043045;28;20808;-70
2024/03/13 12:01:12;;;;;;;391.50;273.40;;;17.70;60.10;19.40;96649.00;;;;5037183;28;20763;-71
2024/03/13 12:04:05;;;;;;;403.00;283.37;;;17.50;59.10;20.90;96656.00;;;;5043202;28;20207;-71
2024/03/13 12:06:54;;;;;;;405.23;290.83;;;17.80;59.50;19.70;96645.00;;;;5038458;28;20225;-71
2024/03/13 12:09:43;;;;;;;396.60;283.73;;;18.10;58.80;18.00;96637.00;;;;5040367;28;20268;-70
2024/03/13 12:12:32;;;;;;;400.13;280.03;;;17.70;57.50;18.20;96615.00;;;;5039501;28;20752;-69
2024/03/13 12:15:21;;;;;;;388.97;268.97;;;17.50;58.60;18.10;96689.00;;;;5037138;28;20752;-69
2024/03/13 12:18:11;;;;;;;377.53;255.73;;;17.10;58.60;16.40;96611.00;;;;5044499;28;20745;-67
2024/03/13 12:21:01;;;;;;;384.90;247.23;;;16.30;59.60;17.10;96661.00;;;;5017625;28;20197;-69
2024/03/13 12:23:52;;;;;;;368.17;216.93;;;16.20;59.70;16.30;96617.00;;;;5020470;28;20205;-67
2024/03/13 12:26:43;;;;;;;371.13;216.00;;;15.10;59.90;18.20;96614.00;;;;5019264;28;20189;-69
2024/03/13 12:29:34;;;;;;;379.00;216.90;;;16.10;63.50;18.20;96612.00;;;;5019365;28;20197;-69
2024/03/13 12:32:23;;;;;;;371.90;211.93;;;16.40;60.20;17.60;96618.00;;;;5013730;28;20204;-68
2024/03/13 12:35:12;;;;;;;372.20;209.33;;;16.40;62.70;17.50;96607.00;;;;5032106;28;20209;-68
2024/03/13 12:38:01;;;;;;;384.17;219.43;;;16.40;61.80;18.90;96649.00;;;;5025578;28;20590;-72
2024/03/13 12:40:50;;;;;;;391.83;228.73;;;16.50;62.30;18.90;96609.00;;;;5017017;28;20220;-71
2024/03/13 12:43:40;;;;;;;383.90;227.77;;;16.80;59.10;17.30;96626.00;;;;5030699;28;20193;-69